sensor_id;sensor_type;location;lat;lon;timestamp;temperature;humidity
5850;DHT22;2951;47.712;9.400;2024-01-11T00:00:17;-3.90;99.90
5850;DHT22;2951;47.712;9.400;2024-01-11T00:02:45;-4.00;99.90
5850;DHT22;2951;47.712;9.400;2024-01-11T00:05:12;-4.00;99.90
5850;DHT22;2951;47.712;9.400;2024-01-11T00:07:39;-3.80;99.90
5850;DHT22;2951;47.712;9.400;2024-01-11T00:10:10;-3.80;99.90
5850;DHT22;2951;47.712;9.400;2024-01-11T00:12:37;-3.90;99.90
5850;DHT22;2951;47.712;9.400;2024-01-11T00:15:04;-3.90;99.90
5850;DHT22;2951;47.712;9.400;2024-01-11T00:17:32;-4.00;99.90
5850;DHT22;2951;47.712;9.400;2024-01-11T00:19:59;-3.90;99.90
5850;DHT22;2951;47.712;9.400;2024-01-11T00:22:25;-4.00;99.90
5850;DHT22;2951;47.712;9.400;2024-01-11T00:24:53;-4.00;99.90
5850;DHT22;2951;47.712;9.400;2024-01-11T00:27:20;-3.90;99.90
5850;DHT22;2951;47.712;9.400;2024-01-11T00:29:47;-4.10;99.90
5850;DHT22;2951;47.712;9.400;2024-01-11T00:32:13;-4.20;99.90
5850;DHT22;2951;47.712;9.400;2024-01-11T00:34:40;-4.20;99.90
5850;DHT22;2951;47.712;9.400;2024-01-11T00:37:07;-4.20;99.90
5850;DHT22;2951;47.712;9.400;2024-01-11T00:39:34;-4.20;99.90
5850;DHT22;2951;47.712;9.400;2024-01-11T00:42:00;-4.20;99.90
5850;DHT22;2951;47.712;9.400;2024-01-11T00:44:27;-4.40;99.90
5850;DHT22;2951;47.712;9.400;2024-01-11T00:46:54;-4.40;99.90
5850;DHT22;2951;47.712;9.400;2024-01-11T00:49:21;-4.70;99.90
5850;DHT22;2951;47.712;9.400;2024-01-11T00:51:48;-4.60;99.90
5850;DHT22;2951;47.712;9.400;2024-01-11T00:54:16;-4.50;99.90
5850;DHT22;2951;47.712;9.400;2024-01-11T00:56:42;-4.50;99.90
5850;DHT22;2951;47.712;9.400;2024-01-11T00:59:09;-4.50;99.90
5850;DHT22;2951;47.712;9.400;2024-01-11T01:01:36;-4.50;99.90
5850;DHT22;2951;47.712;9.400;2024-01-11T01:04:03;-4.30;99.90
5850;DHT22;2951;47.712;9.400;2024-01-11T01:06:29;-4.30;99.90
5850;DHT22;2951;47.712;9.400;2024-01-11T01:08:56;-4.20;99.90
5850;DHT22;2951;47.712;9.400;2024-01-11T01:11:26;-4.10;99.90
5850;DHT22;2951;47.712;9.400;2024-01-11T01:13:53;-4.20;99.90
5850;DHT22;2951;47.712;9.400;2024-01-11T01:16:20;-4.30;99.90
5850;DHT22;2951;47.712;9.400;2024-01-11T01:18:47;-4.20;99.90
5850;DHT22;2951;47.712;9.400;2024-01-11T01:21:13;-4.30;99.90
5850;DHT22;2951;47.712;9.400;2024-01-11T01:23:41;-4.30;99.90
5850;DHT22;2951;47.712;9.400;2024-01-11T01:26:08;-4.30;99.90
5850;DHT22;2951;47.712;9.400;2024-01-11T01:28:35;-4.40;99.90
5850;DHT22;2951;47.712;9.400;2024-01-11T01:31:04;-4.40;99.90
5850;DHT22;2951;47.712;9.400;2024-01-11T01:33:31;-4.40;99.90
5850;DHT22;2951;47.712;9.400;2024-01-11T01:35:58;-4.30;99.90
5850;DHT22;2951;47.712;9.400;2024-01-11T01:38:25;-4.30;99.90
5850;DHT22;2951;47.712;9.400;2024-01-11T01:40:52;-4.50;99.90
5850;DHT22;2951;47.712;9.400;2024-01-11T01:43:19;-4.60;99.90
5850;DHT22;2951;47.712;9.400;2024-01-11T01:45:46;-4.60;99.90
5850;DHT22;2951;47.712;9.400;2024-01-11T01:48:13;-4.60;99.90
5850;DHT22;2951;47.712;9.400;2024-01-11T01:50:40;-4.70;99.90
5850;DHT22;2951;47.712;9.400;2024-01-11T01:53:07;-4.80;99.90
5850;DHT22;2951;47.712;9.400;2024-01-11T01:55:34;-4.80;99.90
5850;DHT22;2951;47.712;9.400;2024-01-11T01:58:01;-4.90;99.90
5850;DHT22;2951;47.712;9.400;2024-01-11T02:00:33;-4.60;99.90
5850;DHT22;2951;47.712;9.400;2024-01-11T02:03:00;-4.60;99.90
5850;DHT22;2951;47.712;9.400;2024-01-11T02:05:26;-4.50;99.90
5850;DHT22;2951;47.712;9.400;2024-01-11T02:07:53;-4.60;99.90
5850;DHT22;2951;47.712;9.400;2024-01-11T02:10:24;-4.80;99.90
5850;DHT22;2951;47.712;9.400;2024-01-11T02:12:51;-4.90;99.90
5850;DHT22;2951;47.712;9.400;2024-01-11T02:15:19;-4.90;99.90
5850;DHT22;2951;47.712;9.400;2024-01-11T02:17:46;-5.00;99.90
5850;DHT22;2951;47.712;9.400;2024-01-11T02:20:13;-4.90;99.90
5850;DHT22;2951;47.712;9.400;2024-01-11T02:22:42;-4.80;99.90
5850;DHT22;2951;47.712;9.400;2024-01-11T02:25:09;-4.60;99.90
5850;DHT22;2951;47.712;9.400;2024-01-11T02:27:48;-4.30;99.90
5850;DHT22;2951;47.712;9.400;2024-01-11T02:30:17;-4.30;99.90
5850;DHT22;2951;47.712;9.400;2024-01-11T02:32:48;-4.10;99.90
5850;DHT22;2951;47.712;9.400;2024-01-11T02:35:15;-4.10;99.90
5850;DHT22;2951;47.712;9.400;2024-01-11T02:37:46;-3.90;99.90
5850;DHT22;2951;47.712;9.400;2024-01-11T02:40:13;-3.90;99.90
5850;DHT22;2951;47.712;9.400;2024-01-11T02:42:41;-3.80;99.90
5850;DHT22;2951;47.712;9.400;2024-01-11T02:45:10;-3.90;99.90
5850;DHT22;2951;47.712;9.400;2024-01-11T02:47:37;-3.70;99.90
5850;DHT22;2951;47.712;9.400;2024-01-11T02:50:05;-3.70;99.90
5850;DHT22;2951;47.712;9.400;2024-01-11T02:52:34;-3.70;99.90
5850;DHT22;2951;47.712;9.400;2024-01-11T02:55:00;-3.40;99.90
5850;DHT22;2951;47.712;9.400;2024-01-11T02:57:27;-3.20;99.90
5850;DHT22;2951;47.712;9.400;2024-01-11T02:59:55;-3.30;99.90
5850;DHT22;2951;47.712;9.400;2024-01-11T03:02:22;-3.10;99.90
5850;DHT22;2951;47.712;9.400;2024-01-11T03:04:49;-3.10;99.90
5850;DHT22;2951;47.712;9.400;2024-01-11T03:07:16;-3.10;99.90
5850;DHT22;2951;47.712;9.400;2024-01-11T03:09:43;-3.10;99.90
5850;DHT22;2951;47.712;9.400;2024-01-11T03:12:11;-3.00;99.90
5850;DHT22;2951;47.712;9.400;2024-01-11T03:14:38;-3.10;99.90
5850;DHT22;2951;47.712;9.400;2024-01-11T03:17:05;-2.90;99.90
5850;DHT22;2951;47.712;9.400;2024-01-11T03:19:32;-2.70;99.90
5850;DHT22;2951;47.712;9.400;2024-01-11T03:22:01;-2.70;99.90
5850;DHT22;2951;47.712;9.400;2024-01-11T03:24:32;-2.90;99.90
5850;DHT22;2951;47.712;9.400;2024-01-11T03:26:59;-2.90;99.90
5850;DHT22;2951;47.712;9.400;2024-01-11T03:29:26;-3.10;99.90
5850;DHT22;2951;47.712;9.400;2024-01-11T03:31:53;-3.10;99.90
5850;DHT22;2951;47.712;9.400;2024-01-11T03:34:20;-3.10;99.90
5850;DHT22;2951;47.712;9.400;2024-01-11T03:36:47;-3.00;99.90
5850;DHT22;2951;47.712;9.400;2024-01-11T03:39:14;-2.90;99.90
5850;DHT22;2951;47.712;9.400;2024-01-11T03:41:46;-2.80;99.90
5850;DHT22;2951;47.712;9.400;2024-01-11T03:44:16;-2.90;99.90
5850;DHT22;2951;47.712;9.400;2024-01-11T03:46:43;-2.90;99.90
5850;DHT22;2951;47.712;9.400;2024-01-11T03:49:10;-2.90;99.90
5850;DHT22;2951;47.712;9.400;2024-01-11T03:51:37;-2.90;99.90
5850;DHT22;2951;47.712;9.400;2024-01-11T03:54:04;-3.00;99.90
5850;DHT22;2951;47.712;9.400;2024-01-11T03:56:31;-2.90;99.90
5850;DHT22;2951;47.712;9.400;2024-01-11T03:58:58;-2.70;99.90
5850;DHT22;2951;47.712;9.400;2024-01-11T04:01:25;-2.80;99.90
5850;DHT22;2951;47.712;9.400;2024-01-11T04:03:51;-2.80;99.90
5850;DHT22;2951;47.712;9.400;2024-01-11T04:06:21;-2.70;99.90
5850;DHT22;2951;47.712;9.400;2024-01-11T04:11:41;-2.70;99.90
5850;DHT22;2951;47.712;9.400;2024-01-11T04:14:08;-2.60;99.90
5850;DHT22;2951;47.712;9.400;2024-01-11T04:16:39;-2.50;99.90
5850;DHT22;2951;47.712;9.400;2024-01-11T04:19:07;-2.60;99.90
5850;DHT22;2951;47.712;9.400;2024-01-11T04:21:33;-2.70;99.90
5850;DHT22;2951;47.712;9.400;2024-01-11T04:24:00;-2.70;99.90
5850;DHT22;2951;47.712;9.400;2024-01-11T04:26:27;-2.50;99.90
5850;DHT22;2951;47.712;9.400;2024-01-11T04:28:54;-2.40;99.90
5850;DHT22;2951;47.712;9.400;2024-01-11T04:31:23;-2.80;99.90
5850;DHT22;2951;47.712;9.400;2024-01-11T04:33:52;-3.00;99.90
5850;DHT22;2951;47.712;9.400;2024-01-11T04:36:19;-3.20;99.90
5850;DHT22;2951;47.712;9.400;2024-01-11T04:38:46;-3.10;99.90
5850;DHT22;2951;47.712;9.400;2024-01-11T04:41:14;-2.90;99.90
5850;DHT22;2951;47.712;9.400;2024-01-11T04:43:41;-2.80;99.90
5850;DHT22;2951;47.712;9.400;2024-01-11T04:46:18;-2.70;99.90
5850;DHT22;2951;47.712;9.400;2024-01-11T04:48:46;-2.70;99.90
5850;DHT22;2951;47.712;9.400;2024-01-11T04:51:13;-2.70;99.90
5850;DHT22;2951;47.712;9.400;2024-01-11T04:53:40;-2.50;99.90
5850;DHT22;2951;47.712;9.400;2024-01-11T04:56:10;-2.40;99.90
5850;DHT22;2951;47.712;9.400;2024-01-11T04:58:39;-2.70;99.90
5850;DHT22;2951;47.712;9.400;2024-01-11T05:01:06;-2.70;99.90
5850;DHT22;2951;47.712;9.400;2024-01-11T05:03:33;-2.50;99.90
5850;DHT22;2951;47.712;9.400;2024-01-11T05:06:00;-2.60;99.90
5850;DHT22;2951;47.712;9.400;2024-01-11T05:08:28;-2.60;99.90
5850;DHT22;2951;47.712;9.400;2024-01-11T05:10:56;-2.60;99.90
5850;DHT22;2951;47.712;9.400;2024-01-11T05:13:23;-2.60;99.90
5850;DHT22;2951;47.712;9.400;2024-01-11T05:15:50;-2.70;99.90
5850;DHT22;2951;47.712;9.400;2024-01-11T05:18:17;-2.50;99.90
5850;DHT22;2951;47.712;9.400;2024-01-11T05:20:44;-2.60;99.90
5850;DHT22;2951;47.712;9.400;2024-01-11T05:23:11;-2.80;99.90
5850;DHT22;2951;47.712;9.400;2024-01-11T05:25:39;-2.70;99.90
5850;DHT22;2951;47.712;9.400;2024-01-11T05:28:06;-2.60;99.90
5850;DHT22;2951;47.712;9.400;2024-01-11T05:30:33;-2.80;99.90
5850;DHT22;2951;47.712;9.400;2024-01-11T05:33:00;-2.70;99.90
5850;DHT22;2951;47.712;9.400;2024-01-11T05:35:27;-2.70;99.90
5850;DHT22;2951;47.712;9.400;2024-01-11T05:37:54;-2.60;99.90
5850;DHT22;2951;47.712;9.400;2024-01-11T05:40:24;-2.70;99.90
5850;DHT22;2951;47.712;9.400;2024-01-11T05:42:51;-2.70;99.90
5850;DHT22;2951;47.712;9.400;2024-01-11T05:45:17;-2.60;99.90
5850;DHT22;2951;47.712;9.400;2024-01-11T05:47:48;-2.60;99.90
5850;DHT22;2951;47.712;9.400;2024-01-11T05:50:15;-2.80;99.90
5850;DHT22;2951;47.712;9.400;2024-01-11T05:52:41;-2.80;99.90
5850;DHT22;2951;47.712;9.400;2024-01-11T05:55:08;-2.80;99.90
5850;DHT22;2951;47.712;9.400;2024-01-11T05:57:35;-2.80;99.90
5850;DHT22;2951;47.712;9.400;2024-01-11T06:00:03;-2.90;99.90
5850;DHT22;2951;47.712;9.400;2024-01-11T06:02:30;-2.80;99.90
5850;DHT22;2951;47.712;9.400;2024-01-11T06:04:58;-2.80;99.90
5850;DHT22;2951;47.712;9.400;2024-01-11T06:07:24;-2.70;99.90
5850;DHT22;2951;47.712;9.400;2024-01-11T06:09:58;-2.80;99.90
5850;DHT22;2951;47.712;9.400;2024-01-11T06:12:25;-2.80;99.90
5850;DHT22;2951;47.712;9.400;2024-01-11T06:14:52;-2.70;99.90
5850;DHT22;2951;47.712;9.400;2024-01-11T06:17:19;-2.70;99.90
5850;DHT22;2951;47.712;9.400;2024-01-11T06:19:47;-2.60;99.90
5850;DHT22;2951;47.712;9.400;2024-01-11T06:22:14;-2.80;99.90
5850;DHT22;2951;47.712;9.400;2024-01-11T06:24:43;-2.80;99.90
5850;DHT22;2951;47.712;9.400;2024-01-11T06:27:10;-2.60;99.90
5850;DHT22;2951;47.712;9.400;2024-01-11T06:29:37;-2.60;99.90
5850;DHT22;2951;47.712;9.400;2024-01-11T06:32:04;-2.60;99.90
5850;DHT22;2951;47.712;9.400;2024-01-11T06:34:31;-2.60;99.90
5850;DHT22;2951;47.712;9.400;2024-01-11T06:36:58;-2.60;99.90
5850;DHT22;2951;47.712;9.400;2024-01-11T06:39:24;-2.70;99.90
5850;DHT22;2951;47.712;9.400;2024-01-11T06:41:51;-2.60;99.90
5850;DHT22;2951;47.712;9.400;2024-01-11T06:44:18;-2.70;99.90
5850;DHT22;2951;47.712;9.400;2024-01-11T06:46:47;-2.70;99.90
5850;DHT22;2951;47.712;9.400;2024-01-11T06:49:14;-2.70;99.90
5850;DHT22;2951;47.712;9.400;2024-01-11T06:51:41;-2.70;99.90
5850;DHT22;2951;47.712;9.400;2024-01-11T06:54:09;-2.70;99.90
5850;DHT22;2951;47.712;9.400;2024-01-11T06:56:36;-2.70;99.90
5850;DHT22;2951;47.712;9.400;2024-01-11T06:59:06;-2.90;99.90
5850;DHT22;2951;47.712;9.400;2024-01-11T07:01:33;-2.90;99.90
5850;DHT22;2951;47.712;9.400;2024-01-11T07:04:00;-3.00;99.90
5850;DHT22;2951;47.712;9.400;2024-01-11T07:06:27;-2.90;99.90
5850;DHT22;2951;47.712;9.400;2024-01-11T07:08:56;-2.90;99.90
5850;DHT22;2951;47.712;9.400;2024-01-11T07:11:25;-3.00;99.90
5850;DHT22;2951;47.712;9.400;2024-01-11T07:13:52;-3.20;99.90
5850;DHT22;2951;47.712;9.400;2024-01-11T07:16:21;-3.00;99.90
5850;DHT22;2951;47.712;9.400;2024-01-11T07:18:48;-3.00;99.90
5850;DHT22;2951;47.712;9.400;2024-01-11T07:21:24;-3.00;99.90
5850;DHT22;2951;47.712;9.400;2024-01-11T07:23:57;-3.00;99.90
5850;DHT22;2951;47.712;9.400;2024-01-11T07:26:24;-2.90;99.90
5850;DHT22;2951;47.712;9.400;2024-01-11T07:28:51;-3.00;99.90
5850;DHT22;2951;47.712;9.400;2024-01-11T07:31:18;-3.00;99.90
5850;DHT22;2951;47.712;9.400;2024-01-11T07:33:45;-3.00;99.90
5850;DHT22;2951;47.712;9.400;2024-01-11T07:36:12;-3.20;99.90
5850;DHT22;2951;47.712;9.400;2024-01-11T07:38:40;-3.30;99.90
5850;DHT22;2951;47.712;9.400;2024-01-11T07:41:07;-3.30;99.90
5850;DHT22;2951;47.712;9.400;2024-01-11T07:43:34;-3.20;99.90
5850;DHT22;2951;47.712;9.400;2024-01-11T07:46:11;-3.20;99.90
5850;DHT22;2951;47.712;9.400;2024-01-11T07:48:38;-3.30;99.90
5850;DHT22;2951;47.712;9.400;2024-01-11T07:51:06;-3.20;99.90
5850;DHT22;2951;47.712;9.400;2024-01-11T07:53:34;-3.20;99.90
5850;DHT22;2951;47.712;9.400;2024-01-11T07:56:01;-3.20;99.90
5850;DHT22;2951;47.712;9.400;2024-01-11T07:58:28;-3.30;99.90
5850;DHT22;2951;47.712;9.400;2024-01-11T08:00:55;-3.20;99.90
5850;DHT22;2951;47.712;9.400;2024-01-11T08:03:21;-3.20;99.90
5850;DHT22;2951;47.712;9.400;2024-01-11T08:05:48;-3.10;99.90
5850;DHT22;2951;47.712;9.400;2024-01-11T08:08:17;-3.00;99.90
5850;DHT22;2951;47.712;9.400;2024-01-11T08:10:44;-3.10;99.90
5850;DHT22;2951;47.712;9.400;2024-01-11T08:13:11;-3.00;99.90
5850;DHT22;2951;47.712;9.400;2024-01-11T08:15:39;-2.90;99.90
5850;DHT22;2951;47.712;9.400;2024-01-11T08:18:06;-3.00;99.90
5850;DHT22;2951;47.712;9.400;2024-01-11T08:20:34;-3.20;99.90
5850;DHT22;2951;47.712;9.400;2024-01-11T08:23:01;-3.00;99.90
5850;DHT22;2951;47.712;9.400;2024-01-11T08:25:27;-3.00;99.90
5850;DHT22;2951;47.712;9.400;2024-01-11T08:27:54;-3.10;99.90
5850;DHT22;2951;47.712;9.400;2024-01-11T08:30:22;-3.10;99.90
5850;DHT22;2951;47.712;9.400;2024-01-11T08:32:49;-2.90;99.90
5850;DHT22;2951;47.712;9.400;2024-01-11T08:35:16;-2.90;99.90
5850;DHT22;2951;47.712;9.400;2024-01-11T08:37:43;-2.90;99.90
5850;DHT22;2951;47.712;9.400;2024-01-11T08:40:10;-2.90;99.90
5850;DHT22;2951;47.712;9.400;2024-01-11T08:42:37;-2.70;99.90
5850;DHT22;2951;47.712;9.400;2024-01-11T08:45:06;-2.60;99.90
5850;DHT22;2951;47.712;9.400;2024-01-11T08:47:34;-2.60;99.90
5850;DHT22;2951;47.712;9.400;2024-01-11T08:50:01;-2.40;99.90
5850;DHT22;2951;47.712;9.400;2024-01-11T08:52:32;-2.30;99.90
5850;DHT22;2951;47.712;9.400;2024-01-11T08:55:00;-2.40;99.90
5850;DHT22;2951;47.712;9.400;2024-01-11T08:57:27;-2.40;99.90
5850;DHT22;2951;47.712;9.400;2024-01-11T08:59:54;-2.30;99.90
5850;DHT22;2951;47.712;9.400;2024-01-11T09:02:21;-2.10;99.90
5850;DHT22;2951;47.712;9.400;2024-01-11T09:04:52;-2.10;99.90
5850;DHT22;2951;47.712;9.400;2024-01-11T09:07:19;-2.00;99.90
5850;DHT22;2951;47.712;9.400;2024-01-11T09:09:46;-2.00;99.90
5850;DHT22;2951;47.712;9.400;2024-01-11T09:12:19;-2.00;99.90
5850;DHT22;2951;47.712;9.400;2024-01-11T09:14:46;-2.20;99.90
5850;DHT22;2951;47.712;9.400;2024-01-11T09:17:13;-2.10;99.90
5850;DHT22;2951;47.712;9.400;2024-01-11T09:19:40;-2.10;99.90
5850;DHT22;2951;47.712;9.400;2024-01-11T09:22:07;-2.00;99.90
5850;DHT22;2951;47.712;9.400;2024-01-11T09:24:37;-1.80;99.90
5850;DHT22;2951;47.712;9.400;2024-01-11T09:27:05;-1.80;99.90
5850;DHT22;2951;47.712;9.400;2024-01-11T09:29:32;-1.80;99.90
5850;DHT22;2951;47.712;9.400;2024-01-11T09:31:59;-1.90;99.90
5850;DHT22;2951;47.712;9.400;2024-01-11T09:34:26;-2.10;99.90
5850;DHT22;2951;47.712;9.400;2024-01-11T09:36:53;-2.00;99.90
5850;DHT22;2951;47.712;9.400;2024-01-11T09:39:22;-1.90;99.90
5850;DHT22;2951;47.712;9.400;2024-01-11T09:41:51;-1.80;99.90
5850;DHT22;2951;47.712;9.400;2024-01-11T09:44:19;-2.00;99.90
5850;DHT22;2951;47.712;9.400;2024-01-11T09:46:46;-1.80;99.90
5850;DHT22;2951;47.712;9.400;2024-01-11T09:49:13;-1.90;99.90
5850;DHT22;2951;47.712;9.400;2024-01-11T09:51:42;-1.90;99.90
5850;DHT22;2951;47.712;9.400;2024-01-11T09:54:09;-1.90;99.90
5850;DHT22;2951;47.712;9.400;2024-01-11T09:56:37;-2.00;99.90
5850;DHT22;2951;47.712;9.400;2024-01-11T09:59:04;-1.90;99.90
5850;DHT22;2951;47.712;9.400;2024-01-11T10:01:37;-2.20;99.90
5850;DHT22;2951;47.712;9.400;2024-01-11T10:04:04;-2.50;99.90
5850;DHT22;2951;47.712;9.400;2024-01-11T10:06:32;-2.80;99.90
5850;DHT22;2951;47.712;9.400;2024-01-11T10:09:01;-2.90;99.90
5850;DHT22;2951;47.712;9.400;2024-01-11T10:11:34;-3.10;99.90
5850;DHT22;2951;47.712;9.400;2024-01-11T10:14:04;-3.40;99.90
5850;DHT22;2951;47.712;9.400;2024-01-11T10:16:31;-3.60;99.90
5850;DHT22;2951;47.712;9.400;2024-01-11T10:18:58;-3.50;99.90
5850;DHT22;2951;47.712;9.400;2024-01-11T10:21:27;-3.30;99.90
5850;DHT22;2951;47.712;9.400;2024-01-11T10:23:57;-3.30;99.90
5850;DHT22;2951;47.712;9.400;2024-01-11T10:26:24;-3.40;99.90
5850;DHT22;2951;47.712;9.400;2024-01-11T10:28:51;-3.30;99.90
5850;DHT22;2951;47.712;9.400;2024-01-11T10:31:18;-3.10;99.90
5850;DHT22;2951;47.712;9.400;2024-01-11T10:33:45;-3.10;99.90
5850;DHT22;2951;47.712;9.400;2024-01-11T10:36:13;-3.00;99.90
5850;DHT22;2951;47.712;9.400;2024-01-11T10:38:40;-3.30;99.90
5850;DHT22;2951;47.712;9.400;2024-01-11T10:41:08;-3.10;99.90
5850;DHT22;2951;47.712;9.400;2024-01-11T10:43:36;-3.10;99.90
5850;DHT22;2951;47.712;9.400;2024-01-11T10:46:03;-2.90;99.90
5850;DHT22;2951;47.712;9.400;2024-01-11T10:48:37;-2.70;99.90
5850;DHT22;2951;47.712;9.400;2024-01-11T10:51:08;-2.80;99.90
5850;DHT22;2951;47.712;9.400;2024-01-11T10:53:41;-3.00;99.90
5850;DHT22;2951;47.712;9.400;2024-01-11T10:56:09;-2.90;99.90
5850;DHT22;2951;47.712;9.400;2024-01-11T10:58:42;-3.20;99.90
5850;DHT22;2951;47.712;9.400;2024-01-11T11:01:10;-3.40;99.90
5850;DHT22;2951;47.712;9.400;2024-01-11T11:03:38;-3.50;99.90
5850;DHT22;2951;47.712;9.400;2024-01-11T11:06:06;-3.50;99.90
5850;DHT22;2951;47.712;9.400;2024-01-11T11:08:36;-3.30;99.90
5850;DHT22;2951;47.712;9.400;2024-01-11T11:11:08;-3.20;99.90
5850;DHT22;2951;47.712;9.400;2024-01-11T11:13:36;-3.30;99.90
5850;DHT22;2951;47.712;9.400;2024-01-11T11:16:05;-2.90;99.90
5850;DHT22;2951;47.712;9.400;2024-01-11T11:18:32;-2.80;99.90
5850;DHT22;2951;47.712;9.400;2024-01-11T11:21:02;-2.70;99.90
5850;DHT22;2951;47.712;9.400;2024-01-11T11:23:33;-2.60;99.90
5850;DHT22;2951;47.712;9.400;2024-01-11T11:26:00;-2.40;99.90
5850;DHT22;2951;47.712;9.400;2024-01-11T11:28:27;-2.10;99.90
5850;DHT22;2951;47.712;9.400;2024-01-11T11:30:54;-2.00;99.90
5850;DHT22;2951;47.712;9.400;2024-01-11T11:33:23;-1.80;99.90
5850;DHT22;2951;47.712;9.400;2024-01-11T11:35:56;-1.60;99.90
5850;DHT22;2951;47.712;9.400;2024-01-11T11:38:25;-2.00;99.90
5850;DHT22;2951;47.712;9.400;2024-01-11T11:40:53;-1.80;99.90
5850;DHT22;2951;47.712;9.400;2024-01-11T11:43:21;-1.90;99.90
5850;DHT22;2951;47.712;9.400;2024-01-11T11:45:50;-1.80;99.90
5850;DHT22;2951;47.712;9.400;2024-01-11T11:51:09;-2.00;99.90
5850;DHT22;2951;47.712;9.400;2024-01-11T11:53:36;-2.70;99.90
5850;DHT22;2951;47.712;9.400;2024-01-11T11:56:03;-2.70;99.90
5850;DHT22;2951;47.712;9.400;2024-01-11T11:58:31;-2.60;99.90
5850;DHT22;2951;47.712;9.400;2024-01-11T12:00:58;-2.30;99.90
5850;DHT22;2951;47.712;9.400;2024-01-11T12:03:29;-2.40;99.90
5850;DHT22;2951;47.712;9.400;2024-01-11T12:05:57;-2.30;99.90
5850;DHT22;2951;47.712;9.400;2024-01-11T12:08:24;-2.20;99.90
5850;DHT22;2951;47.712;9.400;2024-01-11T12:10:56;-2.10;99.90
5850;DHT22;2951;47.712;9.400;2024-01-11T12:13:23;-1.90;99.90
5850;DHT22;2951;47.712;9.400;2024-01-11T12:15:51;-1.80;99.90
5850;DHT22;2951;47.712;9.400;2024-01-11T12:18:18;-1.80;99.90
5850;DHT22;2951;47.712;9.400;2024-01-11T12:20:45;-1.50;99.90
5850;DHT22;2951;47.712;9.400;2024-01-11T12:23:12;-1.40;99.90
5850;DHT22;2951;47.712;9.400;2024-01-11T12:25:41;-1.40;99.90
5850;DHT22;2951;47.712;9.400;2024-01-11T12:28:08;-1.40;99.90
5850;DHT22;2951;47.712;9.400;2024-01-11T12:30:36;-1.30;99.90
5850;DHT22;2951;47.712;9.400;2024-01-11T12:33:03;-1.40;99.90
5850;DHT22;2951;47.712;9.400;2024-01-11T12:35:31;-1.60;99.90
5850;DHT22;2951;47.712;9.400;2024-01-11T12:37:59;-1.30;99.90
5850;DHT22;2951;47.712;9.400;2024-01-11T12:40:27;-1.30;99.90
5850;DHT22;2951;47.712;9.400;2024-01-11T12:42:53;-1.40;99.90
5850;DHT22;2951;47.712;9.400;2024-01-11T12:45:20;-1.50;99.90
5850;DHT22;2951;47.712;9.400;2024-01-11T12:47:47;-1.40;99.90
5850;DHT22;2951;47.712;9.400;2024-01-11T12:50:15;-1.50;99.90
5850;DHT22;2951;47.712;9.400;2024-01-11T12:52:42;-1.60;99.90
5850;DHT22;2951;47.712;9.400;2024-01-11T12:55:17;-1.30;99.90
5850;DHT22;2951;47.712;9.400;2024-01-11T12:57:45;-1.30;99.90
5850;DHT22;2951;47.712;9.400;2024-01-11T13:00:15;-1.40;99.90
5850;DHT22;2951;47.712;9.400;2024-01-11T13:02:42;-1.50;99.90
5850;DHT22;2951;47.712;9.400;2024-01-11T13:05:12;-1.40;99.90
5850;DHT22;2951;47.712;9.400;2024-01-11T13:07:39;-1.60;99.90
5850;DHT22;2951;47.712;9.400;2024-01-11T13:10:09;-1.40;99.90
5850;DHT22;2951;47.712;9.400;2024-01-11T13:12:39;-1.50;99.90
5850;DHT22;2951;47.712;9.400;2024-01-11T13:15:06;-1.50;99.90
5850;DHT22;2951;47.712;9.400;2024-01-11T13:17:33;-1.60;99.90
5850;DHT22;2951;47.712;9.400;2024-01-11T13:20:00;-1.60;99.90
5850;DHT22;2951;47.712;9.400;2024-01-11T13:22:28;-1.40;99.90
5850;DHT22;2951;47.712;9.400;2024-01-11T13:24:55;-1.40;99.90
5850;DHT22;2951;47.712;9.400;2024-01-11T13:27:22;-1.30;99.90
5850;DHT22;2951;47.712;9.400;2024-01-11T13:29:49;-1.40;99.90
5850;DHT22;2951;47.712;9.400;2024-01-11T13:32:16;-1.40;99.90
5850;DHT22;2951;47.712;9.400;2024-01-11T13:34:44;-1.30;99.90
5850;DHT22;2951;47.712;9.400;2024-01-11T13:37:12;-1.10;99.90
5850;DHT22;2951;47.712;9.400;2024-01-11T13:39:39;-1.10;99.90
5850;DHT22;2951;47.712;9.400;2024-01-11T13:42:06;-1.30;99.90
5850;DHT22;2951;47.712;9.400;2024-01-11T13:44:36;-1.40;99.90
5850;DHT22;2951;47.712;9.400;2024-01-11T13:47:03;-1.20;99.90
5850;DHT22;2951;47.712;9.400;2024-01-11T13:49:31;-1.50;99.90
5850;DHT22;2951;47.712;9.400;2024-01-11T13:52:02;-1.70;99.90
5850;DHT22;2951;47.712;9.400;2024-01-11T13:54:31;-1.60;99.90
5850;DHT22;2951;47.712;9.400;2024-01-11T13:56:57;-1.50;99.90
5850;DHT22;2951;47.712;9.400;2024-01-11T13:59:24;-1.30;99.90
5850;DHT22;2951;47.712;9.400;2024-01-11T14:01:52;-1.40;99.90
5850;DHT22;2951;47.712;9.400;2024-01-11T14:04:24;-1.50;99.90
5850;DHT22;2951;47.712;9.400;2024-01-11T14:06:51;-1.60;99.90
5850;DHT22;2951;47.712;9.400;2024-01-11T14:09:25;-1.50;99.90
5850;DHT22;2951;47.712;9.400;2024-01-11T14:11:52;-1.60;99.90
5850;DHT22;2951;47.712;9.400;2024-01-11T14:14:23;-1.40;99.90
5850;DHT22;2951;47.712;9.400;2024-01-11T14:16:50;-1.40;99.90
5850;DHT22;2951;47.712;9.400;2024-01-11T14:19:18;-1.30;99.90
5850;DHT22;2951;47.712;9.400;2024-01-11T14:21:45;-1.20;99.90
5850;DHT22;2951;47.712;9.400;2024-01-11T14:24:12;-1.20;99.90
5850;DHT22;2951;47.712;9.400;2024-01-11T14:26:40;-1.30;99.90
5850;DHT22;2951;47.712;9.400;2024-01-11T14:29:07;-1.40;99.90
5850;DHT22;2951;47.712;9.400;2024-01-11T14:31:34;-1.60;99.90
5850;DHT22;2951;47.712;9.400;2024-01-11T14:34:01;-1.70;99.90
5850;DHT22;2951;47.712;9.400;2024-01-11T14:36:31;-1.60;99.90
5850;DHT22;2951;47.712;9.400;2024-01-11T14:38:58;-1.50;99.90
5850;DHT22;2951;47.712;9.400;2024-01-11T14:41:25;-1.70;99.90
5850;DHT22;2951;47.712;9.400;2024-01-11T14:43:52;-1.70;99.90
5850;DHT22;2951;47.712;9.400;2024-01-11T14:46:21;-1.60;99.90
5850;DHT22;2951;47.712;9.400;2024-01-11T14:48:49;-1.60;99.90
5850;DHT22;2951;47.712;9.400;2024-01-11T14:51:16;-1.50;99.90
5850;DHT22;2951;47.712;9.400;2024-01-11T14:53:43;-1.60;99.90
5850;DHT22;2951;47.712;9.400;2024-01-11T14:56:10;-1.60;99.90
5850;DHT22;2951;47.712;9.400;2024-01-11T14:58:37;-1.70;99.90
5850;DHT22;2951;47.712;9.400;2024-01-11T15:01:04;-1.70;99.90
5850;DHT22;2951;47.712;9.400;2024-01-11T15:03:31;-1.90;99.90
5850;DHT22;2951;47.712;9.400;2024-01-11T15:06:02;-2.00;99.90
5850;DHT22;2951;47.712;9.400;2024-01-11T15:08:30;-2.00;99.90
5850;DHT22;2951;47.712;9.400;2024-01-11T15:10:58;-2.10;99.90
5850;DHT22;2951;47.712;9.400;2024-01-11T15:13:25;-1.90;99.90
5850;DHT22;2951;47.712;9.400;2024-01-11T15:15:52;-2.00;99.90
5850;DHT22;2951;47.712;9.400;2024-01-11T15:18:19;-1.90;99.90
5850;DHT22;2951;47.712;9.400;2024-01-11T15:20:47;-1.90;99.90
5850;DHT22;2951;47.712;9.400;2024-01-11T15:23:15;-1.80;99.90
5850;DHT22;2951;47.712;9.400;2024-01-11T15:25:42;-1.80;99.90
5850;DHT22;2951;47.712;9.400;2024-01-11T15:28:13;-1.80;99.90
5850;DHT22;2951;47.712;9.400;2024-01-11T15:30:40;-1.70;99.90
5850;DHT22;2951;47.712;9.400;2024-01-11T15:33:07;-1.80;99.90
5850;DHT22;2951;47.712;9.400;2024-01-11T15:35:35;-1.80;99.90
5850;DHT22;2951;47.712;9.400;2024-01-11T15:38:02;-1.80;99.90
5850;DHT22;2951;47.712;9.400;2024-01-11T15:40:29;-1.70;99.90
5850;DHT22;2951;47.712;9.400;2024-01-11T15:42:56;-1.70;99.90
5850;DHT22;2951;47.712;9.400;2024-01-11T15:45:24;-2.00;99.90
5850;DHT22;2951;47.712;9.400;2024-01-11T15:47:51;-2.00;99.90
5850;DHT22;2951;47.712;9.400;2024-01-11T15:50:20;-1.90;99.90
5850;DHT22;2951;47.712;9.400;2024-01-11T15:52:47;-2.20;99.90
5850;DHT22;2951;47.712;9.400;2024-01-11T15:55:14;-1.90;99.90
5850;DHT22;2951;47.712;9.400;2024-01-11T15:57:42;-2.00;99.90
5850;DHT22;2951;47.712;9.400;2024-01-11T16:00:10;-2.00;99.90
5850;DHT22;2951;47.712;9.400;2024-01-11T16:02:41;-2.20;99.90
5850;DHT22;2951;47.712;9.400;2024-01-11T16:05:09;-2.20;99.90
5850;DHT22;2951;47.712;9.400;2024-01-11T16:07:41;-2.10;99.90
5850;DHT22;2951;47.712;9.400;2024-01-11T16:10:09;-2.10;99.90